Stations météo

réclame
Mon MeteoGroup
Kahler Asten, Allemagne (10427): Température de l'air & dewpoint: 17.01.2019 08:00:00 - 23.01.2019 08:00:00 (CET)Kahler Asten, Allemagne (10427): Température de l'air 5cm & Température de l'air -5cm: 17.01.2019 08:00:00 - 23.01.2019 08:00:00 (CET)Kahler Asten, Allemagne (10427): Température de l'air -20cm & Température de l'air -100cm: 17.01.2019 08:00:00 - 23.01.2019 08:00:00 (CET)Kahler Asten, Allemagne (10427): Vitesse du vent & gusts: 17.01.2019 08:00:00 - 23.01.2019 08:00:00 (CET)Kahler Asten, Allemagne (10427): Direction du vent: 17.01.2019 08:00:00 - 23.01.2019 08:00:00 (CET)Kahler Asten, Allemagne (10427): visibility: 17.01.2019 08:00:00 - 23.01.2019 08:00:00 (CET)Kahler Asten, Allemagne (10427): Ensoleillement: 17.01.2019 08:00:00 - 23.01.2019 08:00:00 (CET)Kahler Asten, Allemagne (10427): Quantités de précipitations: 17.01.2019 08:00:00 - 23.01.2019 08:00:00 (CET)
Date & Time tt [°C] td [°C] tt 5cm [°C] tt -5cm [°C] tt -20cm [°C] tt -100cm [°C] ff [km/h] ff [knt] fx [km/h] fx [knt] dd vv [km] sd [min] rr [mm]
23.01.2019 08:00:00 -9,1 -10,7 -1,4 0,0 0,6 3,0 18 10 28 15 SSE 1,2 0 0,0
23.01.2019 07:00:00 -8,9 -10,4 -1,4 0,0 0,6 3,0 24 13 30 16 S 0,9 0 0,0
23.01.2019 06:00:00 -8,9 -10,5 -1,3 0,0 0,6 3,0 24 13 37 20 S 0,8 0 0,0
23.01.2019 05:00:00 -9,0 -10,5 -1,4 0,0 0,6 3,0 27 15 36 19 S 0,5 0 0,0
23.01.2019 04:00:00 -9,0 -10,7 -1,3 0,0 0,6 3,0 25 14 35 19 S 0,6 0 0,0
23.01.2019 03:00:00 -9,0 -10,5 -1,3 0,0 0,6 3,0 23 13 35 19 S 0,3 0 0,0
23.01.2019 02:00:00 -8,9 -10,3 -1,4 0,0 0,6 3,0 23 13 32 17 S 0,2 0 0,0
23.01.2019 01:00:00 -8,6 -10,0 -1,3 0,0 0,6 3,0 23 12 34 19 S 0,3 0 0,0
23.01.2019 00:00:00 -8,4 -9,7 -1,3 0,0 0,6 3,0 25 14 34 18 S 0,5 0 0,0
22.01.2019 23:00:00 -8,6 -10,1 -1,3 0,0 0,6 3,0 28 15 39 21 S 0,9 0 0,0
22.01.2019 22:00:00 -8,6 -10,2 -1,3 0,0 0,6 3,0 28 15 40 21 S 0,7 0 0,0
22.01.2019 21:00:00 -8,8 -10,1 -1,5 0,0 0,6 3,0 29 16 44 24 S 0,5 0 0,0
22.01.2019 20:00:00 -8,7 -10,0 -1,5 0,0 0,6 3,0 29 16 42 23 S 0,5 0 0,1
22.01.2019 19:00:00 -8,8 -10,0 -1,5 0,0 0,6 3,0 25 14 42 23 SSE 0,2 0 0,0
22.01.2019 18:00:00 -9,1 -10,3 -1,3 0,0 0,6 3,0 23 13 36 20 SSE 0,2 0 0,0
22.01.2019 17:00:00 -9,4 -10,5 -1,3 0,0 0,6 3,0 23 12 38 21 S 2,2 0 0,0
22.01.2019 16:00:00 -9,8 -10,8 -1,2 0,0 0,6 3,0 27 15 37 20 SSE 2,7 19 0,0
22.01.2019 15:00:00 -8,7 -10,7 -1,2 0,0 0,6 3,0 27 15 39 21 SSE 7 60 0,0
22.01.2019 14:00:00 -7,6 -11,2 -1,2 0,0 0,6 3,0 24 13 45 24 SSE 9 60 0,0
22.01.2019 13:00:00 -6,8 -12,6 -1,4 0,0 0,6 3,0 31 17 41 22 S 11 60 0,0
22.01.2019 12:00:00 -6,4 -10,8 -1,5 0,0 0,6 3,0 26 14 42 23 S 10 60 0,0
22.01.2019 11:00:00 -6,8 -10,4 -1,7 0,1 0,6 3,0 33 18 44 24 S 9 60 0,0
22.01.2019 10:00:00 -7,3 -10,1 -2,0 0,1 0,6 3,0 28 15 37 20 S 13 41 0,0
22.01.2019 09:00:00 -7,6 -11,3 -2,0 0,1 0,6 3,0 29 16 42 23 S 20 0 0,0
22.01.2019 08:00:00 -7,1 -12,7 -2,1 0,1 0,6 3,0 29 16 41 22 SSW 33 0 0,0
22.01.2019 07:00:00 -7,3 -12,4 -2,1 0,1 0,6 3,0 24 13 34 19 SSW 29 0 0,0
22.01.2019 06:00:00 -7,2 -13,5 -2,2 0,1 0,6 3,0 29 15 34 19 SSW 36 0 0,0
22.01.2019 05:00:00 -6,8 -16,0 -2,3 0,1 0,6 3,0 26 14 32 18 SSW 70 0 0,0
22.01.2019 04:00:00 -6,1 -17,7 -2,4 0,1 0,6 3,0 22 12 27 15 SSW 70 0 0,0
22.01.2019 03:00:00 -5,8 -18,8 -2,4 0,1 0,6 3,0 23 12 24 13 SSW 70 0 0,0
22.01.2019 02:00:00 -5,3 -18,2 -2,3 0,1 0,6 3,0 15 8 17 9 SW 70 0 0,0
22.01.2019 01:00:00 -5,2 -19,4 -2,2 0,1 0,6 3,0 9 5 13 7 SW 70 0 0,0
22.01.2019 00:00:00 -5,7 -15,5 -2,1 0,1 0,6 3,0 13 7 14 7 W 55 0 0,0
21.01.2019 23:00:00 -5,0 -20,5 -2,0 0,1 0,6 3,0 13 7 15 8 W 70 0 0,0
21.01.2019 22:00:00 -4,4 -22,6 -2,0 0,1 0,6 3,0 12 7 18 10 WNW 70 0 0,0
21.01.2019 21:00:00 -4,6 -21,4 -1,8 0,1 0,6 3,0 18 10 21 11 NW 70 0 0,0
21.01.2019 20:00:00 -5,3 -16,0 -1,7 0,1 0,6 3,0 21 11 23 12 WNW 70 0 0,0
21.01.2019 19:00:00 -4,8 -18,3 -1,5 0,1 0,6 3,0 20 11 22 12 WNW 70 0 0,0
21.01.2019 18:00:00 -4,7 -15,1 -1,3 0,1 0,6 3,0 14 8 17 9 NW 70 0 0,0
21.01.2019 17:00:00 -4,8 -9,7 -1,2 0,1 0,6 3,0 16 9 19 10 NW 29 13 0,0
21.01.2019 16:00:00 -3,1 -8,8 -1,1 0,1 0,6 3,0 7 4 13 7 WNW 29 60 0,0
21.01.2019 15:00:00 -2,0 -9,6 -1,2 0,1 0,6 3,0 6 4 13 7 NW 35 60 0,0
21.01.2019 14:00:00 -1,4 -14,0 -1,4 0,1 0,6 3,0 6 3 8 5 NNW 25 60 0,0
21.01.2019 13:00:00 -2,2 -13,0 -1,6 0,1 0,6 3,0 4 2 14 7 NNW 69 60 0,0
21.01.2019 12:00:00 -2,9 -15,1 -1,8 0,1 0,6 3,0 9 5 18 10 N 25 60 0,0
21.01.2019 11:00:00 -4,0 -15,2 -1,9 0,1 0,6 3,0 16 9 19 10 N 20 60 0,0
21.01.2019 10:00:00 -4,3 -16,7 -1,8 0,1 0,6 3,0 14 8 16 9 NNW 45 38 0,0
21.01.2019 09:00:00 -4,3 -17,9 -1,7 0,1 0,6 3,0 8 4 13 7 NE 70 0 0,0
21.01.2019 08:00:00 -4,1 -17,6 -1,6 0,1 0,6 3,0 13 7 21 11 E 70 0 0,0
21.01.2019 07:00:00 -4,2 -17,4 -1,6 0,1 0,6 3,0 15 8 18 10 ENE 70 0 0,0
21.01.2019 06:00:00 -4,1 -17,4 -1,5 0,1 0,6 3,0 16 8 22 12 ENE 70 0 0,0
21.01.2019 05:00:00 -4,4 -17,0 -1,5 0,1 0,6 3,0 17 9 28 15 E 70 0 0,0
21.01.2019 04:00:00 -4,5 -15,5 -1,4 0,1 0,6 3,0 23 13 32 17 E 70 0 0,0
21.01.2019 03:00:00 -6,6 -11,6 -1,4 0,1 0,6 3,0 22 12 31 17 E 30 0 0,0
21.01.2019 02:00:00 -6,8 -11,3 -1,4 0,1 0,6 3,0 26 14 29 16 E 26 0 0,0
21.01.2019 01:00:00 -7,1 -10,2 -1,4 0,1 0,6 3,0 24 13 31 17 E 17 0 0,0
21.01.2019 00:00:00 -6,5 -10,9 -1,3 0,1 0,6 3,0 23 13 30 16 E 30 0 0,0
20.01.2019 23:00:00 -7,1 -10,5 -1,3 0,1 0,6 3,0 19 11 30 16 E 22 0 0,0
20.01.2019 22:00:00 -6,6 -10,9 -1,3 0,1 0,6 3,0 20 11 33 18 E 30 0 0,0
20.01.2019 21:00:00 -5,4 -13,0 -1,2 0,1 0,6 3,0 25 13 35 19 E 58 0 0,0
20.01.2019 20:00:00 -5,4 -12,6 -1,1 0,1 0,6 3,0 21 11 29 16 E 52 0 0,0
20.01.2019 19:00:00 -5,5 -12,3 -1,0 0,1 0,6 3,0 18 10 27 15 E 50 0 0,0
20.01.2019 18:00:00 -5,8 -11,6 -0,9 0,1 0,6 3,0 18 10 32 17 E 48 0 0,0
20.01.2019 17:00:00 -5,7 -11,3 -0,8 0,1 0,6 3,0 17 9 25 13 E 52 12 0,0
20.01.2019 16:00:00 -5,0 -11,0 -0,7 0,1 0,6 3,0 15 8 29 16 E 28 60 0,0
20.01.2019 15:00:00 -4,2 -10,8 -0,8 0,1 0,6 3,0 16 9 30 16 E 14 60 0,0
20.01.2019 14:00:00 -4,3 -10,2 -0,8 0,1 0,6 3,0 15 8 25 13 E 15 60 0,0
20.01.2019 13:00:00 -4,5 -10,4 -1,0 0,1 0,6 3,0 17 9 32 18 E 10 60 0,0
20.01.2019 12:00:00 -5,2 -9,3 -1,1 0,1 0,6 3,0 18 10 32 18 E 13 60 0,0
20.01.2019 11:00:00 -5,4 -10,0 -1,2 0,1 0,6 3,0 19 10 30 16 E 15 60 0,0
20.01.2019 10:00:00 -6,0 -10,2 -1,3 0,1 0,6 3,0 23 12 33 18 ESE 21 37 0,0
20.01.2019 09:00:00 -6,8 -11,1 -1,3 0,1 0,6 3,0 24 13 35 19 E 31 0 0,0
20.01.2019 08:00:00 -7,2 -11,2 -1,3 0,1 0,6 3,0 24 13 33 18 E 34 0 0,0
20.01.2019 07:00:00 -7,5 -11,4 -1,3 0,1 0,6 3,0 21 11 27 15 E 34 0 0,0
20.01.2019 06:00:00 -7,7 -11,5 -1,3 0,1 0,6 3,0 21 11 24 13 E 39 0 0,0
20.01.2019 05:00:00 -7,4 -11,4 -1,2 0,1 0,6 3,0 21 11 25 13 ESE 40 0 0,0
20.01.2019 04:00:00 -7,3 -11,6 -1,2 0,1 0,6 3,0 22 12 25 13 ESE 46 0 0,0
20.01.2019 03:00:00 -6,9 -12,2 -1,2 0,1 0,6 3,0 22 12 28 15 ESE 59 0 0,0
20.01.2019 02:00:00 -7,3 -12,0 -1,1 0,1 0,6 3,0 22 12 29 16 ESE 66 0 0,0
20.01.2019 01:00:00 -7,0 -11,4 -1,1 0,1 0,7 3,0 22 12 30 16 ESE 63 0 0,0
20.01.2019 00:00:00 -7,1 -11,3 -1,0 0,1 0,7 3,0 24 13 32 18 ESE 59 0 0,0
19.01.2019 23:00:00 -6,8 -11,9 -1,0 0,1 0,7 3,0 29 15 37 20 ESE 70 0 0,0
19.01.2019 22:00:00 -6,8 -12,3 -0,9 0,1 0,6 3,0 31 17 39 21 ESE 70 0 0,0
19.01.2019 21:00:00 -6,5 -12,9 -0,9 0,1 0,6 3,0 32 17 40 21 ESE 70 0 0,0
19.01.2019 20:00:00 -6,5 -11,6 -0,8 0,1 0,7 3,0 30 16 37 20 ESE 70 0 0,0
19.01.2019 19:00:00 -6,9 -10,4 -0,8 0,1 0,6 3,0 23 12 31 17 E 70 0 0,0
19.01.2019 18:00:00 -6,3 -9,1 -0,7 0,1 0,7 3,0 23 13 31 17 ESE 43 0 0,0
19.01.2019 17:00:00 -6,0 -8,6 -0,6 0,1 0,7 3,0 21 12 28 15 ESE 56 9 0,0
19.01.2019 16:00:00 -5,2 -8,7 -0,6 0,1 0,6 3,0 18 10 29 16 ESE 43 60 0,0
19.01.2019 15:00:00 -4,4 -8,9 -0,6 0,1 0,6 3,0 22 12 31 17 SE 26 58 0,0
19.01.2019 14:00:00 -4,5 -8,4 -0,7 0,1 0,6 3,0 17 9 26 14 SE 20 59 0,0
19.01.2019 13:00:00 -5,0 -8,2 -0,7 0,1 0,6 3,0 18 10 29 15 SSE 24 59 0,0
19.01.2019 12:00:00 -4,9 -7,8 -0,8 0,1 0,6 3,0 21 12 33 18 SSE 28 60 0,0
19.01.2019 11:00:00 -5,2 -8,0 -0,9 0,1 0,6 3,0 22 12 31 17 SSE 22 59 0,0
19.01.2019 10:00:00 -5,9 -8,7 -0,9 0,1 0,6 3,0 23 12 30 16 SSE 25 36 0,0
19.01.2019 09:00:00 -6,9 -9,8 -1,0 0,1 0,6 3,0 25 13 31 17 SSE 70 0 0,0
19.01.2019 08:00:00 -7,0 -10,6 -1,0 0,1 0,6 3,0 20 11 28 15 SSE 70 0 0,0
19.01.2019 07:00:00 -7,0 -10,1 -1,0 0,1 0,6 3,0 21 12 33 18 SSE 70 0 0,0
19.01.2019 06:00:00 -6,8 -9,5 -0,9 0,1 0,6 3,0 25 13 31 17 S 70 0 0,0
19.01.2019 05:00:00 -6,8 -9,3 -0,9 0,1 0,6 3,0 24 13 31 17 SSE 70 0 0,0
19.01.2019 04:00:00 -6,6 -9,2 -1,0 0,1 0,6 3,0 22 12 27 15 SSE 70 0 0,0
19.01.2019 03:00:00 -6,6 -9,2 -1,0 0,1 0,7 3,0 20 11 24 13 SE 67 0 0,0
19.01.2019 02:00:00 -6,3 -9,0 -0,9 0,1 0,7 3,0 18 10 23 12 SSE 69 0 0,0
19.01.2019 01:00:00 -6,3 -8,9 -0,9 0,1 0,7 3,0 15 8 21 11 SSE 57 0 0,0
19.01.2019 00:00:00 -5,9 -8,9 -1,0 0,1 0,7 3,0 16 9 19 11 S 62 0 0,0
18.01.2019 23:00:00 -5,8 -9,0 -1,0 0,1 0,7 3,0 16 9 20 11 S 64 0 0,0
18.01.2019 22:00:00 -5,8 -8,7 -1,0 0,1 0,7 3,0 18 10 22 12 S 70 0 0,0
18.01.2019 21:00:00 -6,1 -8,6 -1,0 0,1 0,7 3,0 16 8 21 12 S 62 0 0,0
18.01.2019 20:00:00 -6,3 -8,9 -0,9 0,1 0,7 3,0 14 8 18 10 S 70 0 0,0
18.01.2019 19:00:00 -6,1 -7,9 -0,9 0,2 0,7 3,0 15 8 17 9 SSW 70 0 0,0
18.01.2019 18:00:00 -5,7 -7,3 -0,8 0,2 0,7 3,0 15 8 16 9 SSW 54 0 0,0
18.01.2019 17:00:00 -5,3 -6,9 -0,8 0,2 0,7 3,0 14 8 19 10 SSW 70 7 0,0
18.01.2019 16:00:00 -4,2 -6,1 -0,7 0,2 0,7 3,0 10 5 14 8 S 34 60 0,0
18.01.2019 15:00:00 -3,4 -5,1 -0,8 0,2 0,7 3,0 4 2 12 7 SW 59 51 0,0
18.01.2019 14:00:00 -4,0 -5,5 -0,8 0,2 0,7 2,9 8 4 14 7 SW 44 28 0,0
18.01.2019 13:00:00 -3,9 -5,4 -0,8 0,2 0,7 2,9 4 2 14 7 WNW 58 45 0,0
18.01.2019 12:00:00 -4,7 -6,4 -0,8 0,2 0,7 2,9 9 5 16 9 N 26 60 0,0
18.01.2019 11:00:00 -5,2 -6,8 -0,8 0,2 0,7 2,9 8 4 21 11 N 25 60 0,0
18.01.2019 10:00:00 -6,1 -7,6 -0,7 0,2 0,7 2,9 14 8 21 12 WNW 20 35 0,0
18.01.2019 09:00:00 -7,0 -8,7 -0,5 0,2 0,7 2,9 15 8 22 12 NW 66 0 0,0
18.01.2019 08:00:00 -7,2 -8,9 -0,4 0,2 0,7 2,9 16 8 24 13 NW 70 0 0,0
18.01.2019 07:00:00 -6,3 -8,0 -0,4 0,2 0,7 2,9 19 11 27 14 NNW 58 0 0,0
18.01.2019 06:00:00 -5,1 -6,4 -0,4 0,2 0,7 2,9 18 10 40 21 NNW 15 0 0,1
18.01.2019 05:00:00 -4,3 -5,3 -0,4 0,2 0,7 2,9 22 12 40 22 NNW 0,5 0 1,3
18.01.2019 04:00:00 -4,3 -5,4 -0,4 0,2 0,7 2,9 22 12 44 24 NW 4,2 0 0,0
18.01.2019 03:00:00 -4,2 -5,2 -0,4 0,2 0,7 2,9 28 15 51 27 NW 3,4 0 0,0
18.01.2019 02:00:00 -3,9 -5,0 -0,4 0,2 0,7 2,9 29 16 55 30 NW 2,1 0 0,8
18.01.2019 01:00:00 -3,8 -4,8 -0,4 0,2 0,6 2,9 35 19 51 28 NW 3,7 0 0,4
18.01.2019 00:00:00 -3,7 -4,7 -0,4 0,2 0,7 2,9 28 15 51 27 WNW 2,0 0 0,0
17.01.2019 23:00:00 -3,8 -4,9 -0,3 0,2 0,6 2,9 31 17 56 30 WNW 16 0 0,1
17.01.2019 22:00:00 -3,5 -4,5 -0,3 0,2 0,6 2,9 27 14 50 27 WNW 1,7 0 0,4
17.01.2019 21:00:00 -3,4 -4,5 -0,3 0,2 0,6 2,9 28 15 49 26 WNW 12 0 0,2
17.01.2019 20:00:00 -3,3 -4,3 -0,3 0,2 0,6 2,9 30 16 50 27 W 15 0 0,0
17.01.2019 19:00:00 -3,2 -4,4 -0,3 0,2 0,6 2,9 35 19 58 31 WNW 8 0 0,0
17.01.2019 18:00:00 -2,8 -3,7 -0,1 0,2 0,6 2,9 31 17 61 33 WNW 19 0 0,1
17.01.2019 17:00:00 -1,9 -2,7 -0,1 0,2 0,6 2,9 34 18 66 36 W 1,6 0 0,1
17.01.2019 16:00:00 -1,7 -2,4 -0,1 0,2 0,6 2,9 32 18 67 36 WNW 3,2 0 0,9
17.01.2019 15:00:00 -1,0 -1,4 -0,1 0,2 0,6 2,9 36 19 58 32 W 0,5 0 2,1
17.01.2019 14:00:00 -0,4 -0,9 -0,1 0,2 0,6 2,9 30 16 50 27 WSW 1,1 0 0,3
17.01.2019 13:00:00 -0,5 -1,1 -0,1 0,2 0,6 2,9 34 19 51 28 SW 1,9 0 0,1
17.01.2019 12:00:00 -0,6 -1,2 -0,1 0,2 0,6 2,9 28 15 52 28 WSW 10 0 0,0
17.01.2019 11:00:00 -0,6 -1,1 -0,1 0,2 0,6 2,9 31 17 50 27 WSW 0,5 0 0,0
17.01.2019 10:00:00 -0,7 -1,2 -0,2 0,2 0,6 2,9 28 15 44 24 WSW 0,1 0 0,7
17.01.2019 09:00:00 -0,7 -1,2 -0,2 0,2 0,6 2,9 18 10 41 22 WSW 0,2 0 0,1
17.01.2019 08:00:00 -0,6 -1,1 -0,2 0,2 0,6 2,9 25 14 42 23 WSW 0,1 0 0,3

tt = Température de l'air
td = dewpoint
tt 5cm = Température de l'air 5cm
tt -5cm = Température de l'air -5cm
tt -20cm = Température de l'air -20cm
tt -100cm = Température de l'air -100cm
ff = Vitesse du vent
fx = gusts
dd = Direction du vent
vv = visibility
sd = Ensoleillement
rr = Quantités de précipitations

stations d'obs. à proximité